createdAt,value
2019-02-25T00:01:20.183Z,7.65
2019-02-25T00:06:21.766Z,7.37
2019-02-25T00:08:53.042Z,6.72
2019-02-25T00:11:24.320Z,6.97
2019-02-25T00:13:55.738Z,7.22
2019-02-25T00:16:27.174Z,7.33
2019-02-25T00:18:58.460Z,8.23
2019-02-25T00:21:30.818Z,7.35
2019-02-25T00:24:02.370Z,7.33
2019-02-25T00:26:34.048Z,8.28
2019-02-25T00:29:05.554Z,7.97
2019-02-25T00:31:36.856Z,7.45
2019-02-25T00:34:08.168Z,8.48
2019-02-25T00:36:39.464Z,9.03
2019-02-25T00:39:10.815Z,8.88
2019-02-25T00:41:42.016Z,8.35
2019-02-25T00:44:13.714Z,9.43
2019-02-25T00:46:44.932Z,9.35
2019-02-25T00:49:16.243Z,10.23
2019-02-25T00:51:47.655Z,10.28
2019-02-25T00:54:19.028Z,11.50
2019-02-25T00:56:51.423Z,10.40
2019-02-25T00:59:22.733Z,10.80
2019-02-25T01:01:54.094Z,10.32
2019-02-25T01:04:25.540Z,11.83
2019-02-25T01:06:56.950Z,11.50
2019-02-25T01:09:28.312Z,10.95
2019-02-25T01:11:59.760Z,11.75
2019-02-25T01:14:31.211Z,10.95
2019-02-25T01:17:02.653Z,11.08
2019-02-25T01:19:34.061Z,10.55
2019-02-25T01:22:05.461Z,10.43
2019-02-25T01:24:36.783Z,9.98
2019-02-25T01:27:08.034Z,10.68
2019-02-25T01:29:39.413Z,11.38
2019-02-25T01:32:10.859Z,10.75
2019-02-25T01:34:42.250Z,11.48
2019-02-25T01:37:13.713Z,11.55
2019-02-25T01:39:45.244Z,10.13
2019-02-25T01:42:18.189Z,10.53
2019-02-25T01:44:49.539Z,9.53
2019-02-25T01:47:20.838Z,8.98
2019-02-25T01:49:52.135Z,9.73
2019-02-25T01:52:23.500Z,9.10
2019-02-25T01:54:54.743Z,9.25
2019-02-25T01:57:25.991Z,10.03
2019-02-25T01:59:57.322Z,10.53
2019-02-25T02:02:28.717Z,10.28
2019-02-25T02:04:59.998Z,10.45
2019-02-25T02:07:31.429Z,11.25
2019-02-25T02:10:02.939Z,10.38
2019-02-25T02:12:34.333Z,11.63
2019-02-25T02:15:09.312Z,11.00
2019-02-25T02:17:41.906Z,10.23
2019-02-25T02:20:15.269Z,9.90
2019-02-25T02:22:46.527Z,12.07
2019-02-25T02:25:17.925Z,11.20
2019-02-25T02:27:49.324Z,11.78
2019-02-25T02:30:21.695Z,11.35
2019-02-25T02:32:53.063Z,11.90
2019-02-25T02:35:24.444Z,11.60
2019-02-25T02:37:55.868Z,10.50
2019-02-25T02:40:27.362Z,11.33
2019-02-25T02:43:00.464Z,12.37
2019-02-25T02:45:34.996Z,11.85
2019-02-25T02:48:12.289Z,12.63
2019-02-25T02:50:43.745Z,12.10
2019-02-25T02:53:15.116Z,12.53
2019-02-25T02:55:46.496Z,12.93
2019-02-25T02:58:17.925Z,13.58
2019-02-25T03:00:49.285Z,14.13
2019-02-25T03:03:21.619Z,15.32
2019-02-25T03:05:53.181Z,18.55
2019-02-25T03:08:24.518Z,20.23
2019-02-25T03:10:55.915Z,25.50
2019-02-25T03:13:27.344Z,25.55
2019-02-25T03:15:58.802Z,24.57
2019-02-25T03:18:30.329Z,23.67
2019-02-25T03:21:01.695Z,21.48
2019-02-25T03:23:33.071Z,18.40
2019-02-25T03:26:04.527Z,14.33
2019-02-25T03:28:35.884Z,13.78
2019-02-25T03:31:07.346Z,12.53
2019-02-25T03:33:39.073Z,12.98
2019-02-25T03:36:10.520Z,12.18
2019-02-25T03:38:41.999Z,11.63
2019-02-25T03:41:13.722Z,12.95
2019-02-25T03:43:45.042Z,11.05
2019-02-25T03:46:16.432Z,10.55
2019-02-25T03:48:47.931Z,10.68
2019-02-25T03:51:19.291Z,10.10
2019-02-25T03:53:50.690Z,10.28
2019-02-25T03:56:22.156Z,11.22
2019-02-25T03:58:53.590Z,10.10
2019-02-25T04:01:24.976Z,10.38
2019-02-25T04:03:56.380Z,10.48
2019-02-25T04:06:27.716Z,9.88
2019-02-25T04:08:58.995Z,10.50
2019-02-25T04:11:30.400Z,11.28
2019-02-25T04:14:01.820Z,9.60
2019-02-25T04:16:32.958Z,10.32
2019-02-25T04:19:04.319Z,9.53
2019-02-25T04:21:35.594Z,9.60
2019-02-25T04:24:06.853Z,9.08
2019-02-25T04:26:38.163Z,10.28
2019-02-25T04:29:09.515Z,9.95
2019-02-25T04:31:40.816Z,9.33
2019-02-25T04:34:12.132Z,10.78
2019-02-25T04:36:44.463Z,9.50
2019-02-25T04:39:15.724Z,9.85
2019-02-25T04:41:48.312Z,10.25
2019-02-25T04:44:19.653Z,9.88
2019-02-25T04:46:50.866Z,10.00
2019-02-25T04:49:22.346Z,9.48
2019-02-25T04:51:53.649Z,10.48
2019-02-25T04:54:25.135Z,9.75
2019-02-25T04:56:56.388Z,10.03
2019-02-25T04:59:27.714Z,9.33
2019-02-25T05:01:59.060Z,10.32
2019-02-25T05:04:30.407Z,10.72
2019-02-25T05:07:01.805Z,10.40
2019-02-25T05:09:33.145Z,9.65
2019-02-25T05:12:04.466Z,9.60
2019-02-25T05:14:35.656Z,9.48
2019-02-25T05:17:07.986Z,11.00
2019-02-25T05:19:39.290Z,9.70
2019-02-25T05:22:10.561Z,11.03
2019-02-25T05:24:42.933Z,10.10
2019-02-25T05:27:14.469Z,10.45
2019-02-25T05:29:45.849Z,10.38
2019-02-25T05:32:17.194Z,9.93
2019-02-25T05:34:48.782Z,9.55
2019-02-25T05:37:20.063Z,11.03
2019-02-25T05:39:51.386Z,10.30
2019-02-25T05:42:23.335Z,10.08
2019-02-25T05:44:55.201Z,10.82
2019-02-25T05:47:26.895Z,10.78
2019-02-25T05:49:58.230Z,10.20
2019-02-25T05:52:29.645Z,11.48
2019-02-25T05:55:00.993Z,12.28
2019-02-25T05:57:33.540Z,12.37
2019-02-25T06:00:08.169Z,13.93
2019-02-25T06:02:39.681Z,11.75
2019-02-25T06:05:11.055Z,12.55
2019-02-25T06:07:42.525Z,12.45
2019-02-25T06:10:14.427Z,11.83
2019-02-25T06:12:45.822Z,10.78
2019-02-25T06:15:19.493Z,10.90
2019-02-25T06:17:51.354Z,11.57
2019-02-25T06:20:22.683Z,10.80
2019-02-25T06:22:54.136Z,12.03
2019-02-25T06:25:25.533Z,12.78
2019-02-25T06:27:57.030Z,10.43
2019-02-25T06:30:28.566Z,11.48
2019-02-25T06:33:00.023Z,10.43
2019-02-25T06:35:31.428Z,11.22
2019-02-25T06:38:03.025Z,10.32
2019-02-25T06:40:34.453Z,11.15
2019-02-25T06:43:05.972Z,10.55
2019-02-25T06:45:37.766Z,11.15
2019-02-25T06:48:09.205Z,11.08
2019-02-25T06:50:40.700Z,10.55
2019-02-25T06:53:12.127Z,10.43
2019-02-25T06:55:43.572Z,10.23
2019-02-25T06:58:15.214Z,10.80
2019-02-25T07:00:46.627Z,12.45
2019-02-25T07:03:18.092Z,12.60
2019-02-25T07:05:51.016Z,12.98
2019-02-25T07:08:27.088Z,12.78
2019-02-25T07:11:03.016Z,11.03
2019-02-25T07:13:37.113Z,12.90
2019-02-25T07:16:10.051Z,12.45
2019-02-25T07:18:59.528Z,11.65
2019-02-25T07:21:44.775Z,11.93
2019-02-25T07:24:17.838Z,12.28
2019-02-25T07:27:07.205Z,11.80
2019-02-25T07:29:43.208Z,12.13
2019-02-25T07:32:30.106Z,12.90
2019-02-25T07:35:11.844Z,13.75
2019-02-25T07:37:53.840Z,13.35
2019-02-25T07:40:26.777Z,13.50
2019-02-25T07:43:08.742Z,14.18
2019-02-25T07:45:43.282Z,14.23
2019-02-25T07:48:16.405Z,14.90
2019-02-25T07:50:55.151Z,14.25
2019-02-25T07:53:28.172Z,15.32
2019-02-25T07:56:06.223Z,14.20
2019-02-25T07:58:49.163Z,14.90
2019-02-25T08:03:57.342Z,14.80
2019-02-25T08:06:39.695Z,15.58
2019-02-25T08:09:15.708Z,14.33
2019-02-25T08:11:51.793Z,14.13
2019-02-25T08:14:30.715Z,14.18
2019-02-25T08:17:04.653Z,12.43
2019-02-25T08:19:40.855Z,14.87
2019-02-25T08:22:28.933Z,14.68
2019-02-25T08:25:18.870Z,11.43
2019-02-25T08:27:51.863Z,10.82
2019-02-25T08:30:39.885Z,10.93
2019-02-25T08:33:15.838Z,10.90
2019-02-25T08:36:09.868Z,10.43
2019-02-25T08:38:59.182Z,11.20
2019-02-25T08:41:36.254Z,10.13
2019-02-25T08:44:18.057Z,10.20
2019-02-25T08:46:57.094Z,9.70
2019-02-25T08:49:29.899Z,10.90
2019-02-25T08:52:01.317Z,9.95
2019-02-25T08:54:32.672Z,9.33
2019-02-25T08:57:03.997Z,9.25
2019-02-25T08:59:36.865Z,10.58
2019-02-25T09:02:08.403Z,10.15
2019-02-25T09:04:40.245Z,9.97
2019-02-25T09:07:11.772Z,10.40
2019-02-25T09:09:43.219Z,10.80
2019-02-25T09:12:14.897Z,11.63
2019-02-25T09:14:46.237Z,11.57
2019-02-25T09:17:19.311Z,12.03
2019-02-25T09:22:21.238Z,10.23
2019-02-25T09:24:52.706Z,11.30
2019-02-25T09:27:24.286Z,10.80
2019-02-25T09:29:55.697Z,12.15
2019-02-25T09:32:29.711Z,12.37
2019-02-25T09:35:01.165Z,10.90
2019-02-25T09:37:32.610Z,10.90
2019-02-25T09:40:08.344Z,11.08
2019-02-25T09:42:39.694Z,12.60
2019-02-25T09:45:17.920Z,13.35
2019-02-25T09:47:49.369Z,12.75
2019-02-25T09:50:22.579Z,12.68
2019-02-25T09:52:53.929Z,13.00
2019-02-25T09:55:25.416Z,13.53
2019-02-25T09:57:56.868Z,13.78
2019-02-25T10:00:28.232Z,15.60
2019-02-25T10:03:01.468Z,12.60
2019-02-25T10:05:33.849Z,13.72
2019-02-25T10:08:05.353Z,14.65
2019-02-25T10:10:36.889Z,14.13
2019-02-25T10:13:08.301Z,14.40
2019-02-25T10:15:39.867Z,14.63
2019-02-25T10:18:13.358Z,15.18
2019-02-25T10:20:44.926Z,12.75
2019-02-25T10:23:16.502Z,14.05
2019-02-25T10:25:47.891Z,13.22
2019-02-25T10:28:19.344Z,13.98
2019-02-25T10:30:53.115Z,12.75
2019-02-25T10:33:25.848Z,14.00
2019-02-25T10:35:57.313Z,14.20
2019-02-25T10:38:29.789Z,14.65
2019-02-25T10:41:02.211Z,15.05
2019-02-25T10:43:39.727Z,15.70
2019-02-25T10:46:13.471Z,14.78
2019-02-25T10:48:44.699Z,15.10
2019-02-25T10:51:16.188Z,14.78
2019-02-25T10:53:49.538Z,16.32
2019-02-25T10:56:26.009Z,15.10
2019-02-25T10:58:58.136Z,15.40
2019-02-25T11:01:30.697Z,15.58
2019-02-25T11:04:02.314Z,14.03
2019-02-25T11:06:35.541Z,14.68
2019-02-25T11:09:25.933Z,14.95
2019-02-25T11:11:59.943Z,14.75
2019-02-25T11:14:31.619Z,15.23
2019-02-25T11:17:07.747Z,15.00
2019-02-25T11:19:39.279Z,14.55
2019-02-25T11:22:12.602Z,16.17
2019-02-25T11:24:49.780Z,13.75
2019-02-25T11:27:20.881Z,14.73
2019-02-25T11:29:52.378Z,14.35
2019-02-25T11:32:25.914Z,13.35
2019-02-25T11:34:56.960Z,14.65
2019-02-25T11:37:28.574Z,14.47
2019-02-25T11:40:03.899Z,14.60
2019-02-25T11:42:34.976Z,14.90
2019-02-25T11:45:20.757Z,15.63
2019-02-25T11:47:52.104Z,14.35
2019-02-25T11:50:23.575Z,14.87
2019-02-25T11:52:54.922Z,14.65
2019-02-25T11:55:26.395Z,14.23
2019-02-25T11:57:57.912Z,15.40
2019-02-25T12:00:30.315Z,15.30
2019-02-25T12:03:01.711Z,14.58
2019-02-25T12:05:33.388Z,14.40
2019-02-25T12:08:04.756Z,14.23
2019-02-25T12:10:36.404Z,14.75
2019-02-25T12:13:17.986Z,14.03
2019-02-25T12:15:55.471Z,14.50
2019-02-25T12:18:28.614Z,13.45
2019-02-25T12:21:03.762Z,13.43
2019-02-25T12:23:39.054Z,15.45
2019-02-25T12:26:11.066Z,14.20
2019-02-25T12:28:42.554Z,16.12
2019-02-25T12:31:13.942Z,15.55
2019-02-25T12:33:45.464Z,15.20
2019-02-25T12:36:16.851Z,15.08
2019-02-25T12:38:48.262Z,14.60
2019-02-25T12:41:19.601Z,14.78
2019-02-25T12:43:50.935Z,14.95
2019-02-25T12:46:22.287Z,14.47
2019-02-25T12:48:53.926Z,14.83
2019-02-25T12:51:25.329Z,15.88
2019-02-25T12:53:56.772Z,15.50
2019-02-25T12:56:28.324Z,16.57
2019-02-25T12:58:59.872Z,16.67
2019-02-25T13:01:31.282Z,16.90
2019-02-25T13:04:02.679Z,17.70
2019-02-25T13:06:36.717Z,17.52
2019-02-25T13:09:11.354Z,16.17
2019-02-25T13:11:44.473Z,16.87
2019-02-25T13:14:15.860Z,18.70
2019-02-25T13:16:47.310Z,19.15
2019-02-25T13:19:18.653Z,18.20
2019-02-25T13:21:51.428Z,18.75
2019-02-25T13:24:22.761Z,18.82
2019-02-25T13:26:54.512Z,20.02
2019-02-25T13:29:26.052Z,19.27
2019-02-25T13:31:57.589Z,19.48
2019-02-25T13:34:29.226Z,20.00
2019-02-25T13:37:00.725Z,20.17
2019-02-25T13:39:35.178Z,19.73
2019-02-25T13:42:06.643Z,20.88
2019-02-25T13:44:38.247Z,19.48
2019-02-25T13:47:09.774Z,20.60
2019-02-25T13:49:41.224Z,19.90
2019-02-25T13:52:13.022Z,20.08
2019-02-25T13:54:44.541Z,21.17
2019-02-25T13:57:16.600Z,21.33
2019-02-25T13:59:48.060Z,19.65
2019-02-25T14:02:19.891Z,18.55
2019-02-25T14:04:51.416Z,19.45
2019-02-25T14:07:23.596Z,20.02
2019-02-25T14:09:56.466Z,19.95
2019-02-25T14:12:28.953Z,18.95
2019-02-25T14:17:32.637Z,19.52
2019-02-25T14:20:07.363Z,19.20
2019-02-25T14:22:38.781Z,19.60
2019-02-25T14:25:12.774Z,22.20
2019-02-25T14:27:46.462Z,21.77
2019-02-25T14:30:20.800Z,21.52
2019-02-25T14:32:53.488Z,23.15
2019-02-25T14:35:29.053Z,23.40
2019-02-25T14:38:07.677Z,22.80
2019-02-25T14:40:39.373Z,23.98
2019-02-25T14:43:12.605Z,25.25
2019-02-25T14:45:45.962Z,23.47
2019-02-25T14:48:20.361Z,24.30
2019-02-25T14:50:48.796Z,22.20
2019-02-25T14:53:20.329Z,24.85
2019-02-25T14:55:53.101Z,24.02
2019-02-25T14:58:24.818Z,25.12
2019-02-25T15:00:56.610Z,24.23
2019-02-25T15:03:29.155Z,23.87
2019-02-25T15:06:01.515Z,24.67
2019-02-25T15:08:33.048Z,25.80
2019-02-25T15:11:06.604Z,26.00
2019-02-25T15:13:39.110Z,24.90
2019-02-25T15:18:41.536Z,24.37
2019-02-25T15:21:15.686Z,24.55
2019-02-25T15:23:46.059Z,23.73
2019-02-25T15:26:19.857Z,26.97
2019-02-25T15:28:53.687Z,26.23
2019-02-25T15:31:24.189Z,27.82
2019-02-25T15:33:55.732Z,28.30
2019-02-25T15:36:28.962Z,29.63
2019-02-25T15:39:00.790Z,28.90
2019-02-25T15:44:04.891Z,26.00
2019-02-25T15:46:37.250Z,27.52
2019-02-25T15:49:08.693Z,28.05
2019-02-25T15:51:41.576Z,28.60
2019-02-25T15:54:13.305Z,28.98
2019-02-25T15:56:44.802Z,30.75
2019-02-25T15:59:16.263Z,29.80
2019-02-25T16:01:47.895Z,29.63
2019-02-25T16:04:19.473Z,27.70
2019-02-25T16:06:57.425Z,30.82
2019-02-25T16:09:27.701Z,30.77
2019-02-25T16:12:00.993Z,32.63
2019-02-25T16:14:33.362Z,31.33
2019-02-25T16:17:04.850Z,30.88
2019-02-25T16:19:41.315Z,29.60
2019-02-25T16:22:11.379Z,26.95
2019-02-25T16:24:43.688Z,27.00
2019-02-25T16:27:16.794Z,27.80
2019-02-25T16:29:48.447Z,26.80
2019-02-25T16:32:21.503Z,24.80
2019-02-25T16:34:55.577Z,27.32
2019-02-25T16:37:29.113Z,24.52
2019-02-25T16:40:03.120Z,25.57
2019-02-25T16:42:34.767Z,27.35
2019-02-25T16:45:11.805Z,25.72
2019-02-25T16:47:46.046Z,28.45
2019-02-25T16:52:51.027Z,28.95
2019-02-25T16:55:27.700Z,30.57
2019-02-25T16:58:01.815Z,27.30
2019-02-25T17:00:35.444Z,26.73
2019-02-25T17:03:08.225Z,24.90
2019-02-25T17:05:42.310Z,23.55
2019-02-25T17:08:14.880Z,23.75
2019-02-25T17:13:17.142Z,22.32
2019-02-25T17:15:48.711Z,22.70
2019-02-25T17:18:22.893Z,22.07
2019-02-25T17:20:53.521Z,22.25
2019-02-25T17:23:27.460Z,23.00
2019-02-25T17:25:59.261Z,24.85
2019-02-25T17:28:30.863Z,24.30
2019-02-25T17:31:02.345Z,25.88
2019-02-25T17:33:34.952Z,24.15
2019-02-25T17:36:07.660Z,24.77
2019-02-25T17:38:41.114Z,24.75
2019-02-25T17:41:13.512Z,23.22
2019-02-25T17:43:45.051Z,24.12
2019-02-25T17:46:17.228Z,23.87
2019-02-25T17:48:48.600Z,26.33
2019-02-25T17:51:20.836Z,25.92
2019-02-25T17:53:54.714Z,27.50
2019-02-25T17:56:26.947Z,26.77
2019-02-25T17:59:01.019Z,27.55
2019-02-25T18:01:33.536Z,26.52
2019-02-25T18:04:06.663Z,25.55
2019-02-25T18:06:41.379Z,24.95
2019-02-25T18:09:14.250Z,25.72
2019-02-25T18:11:47.695Z,26.15
2019-02-25T18:14:19.792Z,25.75
2019-02-25T18:16:51.453Z,25.95
2019-02-25T18:19:24.893Z,28.50
2019-02-25T18:21:58.311Z,29.27
2019-02-25T18:24:32.398Z,31.12
2019-02-25T18:27:04.416Z,30.35
2019-02-25T18:32:08.458Z,28.77
2019-02-25T18:34:40.686Z,28.90
2019-02-25T18:37:13.473Z,28.40
2019-02-25T18:39:45.663Z,31.23
2019-02-25T18:44:51.355Z,31.70
2019-02-25T18:47:25.200Z,35.55
2019-02-25T18:49:57.142Z,37.30
2019-02-25T18:52:31.506Z,42.90
2019-02-25T18:55:04.375Z,45.65
2019-02-25T18:57:35.638Z,50.88
2019-02-25T19:00:10.573Z,49.95
2019-02-25T19:02:42.738Z,50.63
2019-02-25T19:05:14.581Z,58.87
2019-02-25T19:07:48.821Z,52.88
2019-02-25T19:10:21.022Z,58.15
2019-02-25T19:12:56.356Z,55.30
2019-02-25T19:15:28.393Z,56.63
2019-02-25T19:18:00.129Z,57.45
2019-02-25T19:20:31.767Z,54.63
2019-02-25T19:23:05.756Z,52.80
2019-02-25T19:25:37.063Z,53.70
2019-02-25T19:28:08.605Z,48.63
2019-02-25T19:30:39.982Z,44.70
2019-02-25T19:33:11.732Z,46.63
2019-02-25T19:35:43.331Z,44.27
2019-02-25T19:38:15.860Z,43.70
2019-02-25T19:40:51.217Z,43.55
2019-02-25T19:43:21.638Z,41.77
2019-02-25T19:45:52.960Z,43.85
2019-02-25T19:48:28.222Z,40.43
2019-02-25T19:50:59.042Z,40.28
2019-02-25T19:56:02.508Z,39.33
2019-02-25T19:58:35.873Z,38.13
2019-02-25T20:01:09.004Z,38.75
2019-02-25T20:03:42.506Z,39.03
2019-02-25T20:06:16.245Z,40.15
2019-02-25T20:08:48.664Z,37.58
2019-02-25T20:11:20.631Z,38.25
2019-02-25T20:13:51.995Z,37.93
2019-02-25T20:16:25.980Z,38.85
2019-02-25T20:21:30.507Z,34.70
2019-02-25T20:24:01.759Z,35.15
2019-02-25T20:26:33.266Z,34.80
2019-02-25T20:29:06.257Z,34.38
2019-02-25T20:31:37.630Z,35.80
2019-02-25T20:34:08.892Z,34.80
2019-02-25T20:36:40.648Z,32.67
2019-02-25T20:39:11.882Z,29.20
2019-02-25T20:41:45.804Z,32.13
2019-02-25T20:44:18.579Z,29.42
2019-02-25T20:46:52.684Z,30.70
2019-02-25T20:49:24.929Z,30.65
2019-02-25T20:51:56.696Z,32.48
2019-02-25T20:54:28.808Z,31.23
2019-02-25T20:57:00.414Z,33.23
2019-02-25T20:59:33.119Z,29.70
2019-02-25T21:02:07.462Z,29.87
2019-02-25T21:04:38.717Z,32.20
2019-02-25T21:07:11.505Z,30.23
2019-02-25T21:09:44.088Z,31.75
2019-02-25T21:12:17.675Z,28.73
2019-02-25T21:14:48.482Z,31.42
2019-02-25T21:17:19.761Z,30.12
2019-02-25T21:19:50.939Z,29.35
2019-02-25T21:22:23.350Z,29.52
2019-02-25T21:24:55.890Z,28.35
2019-02-25T21:30:01.574Z,28.30
2019-02-25T21:32:34.244Z,28.65
2019-02-25T21:35:09.024Z,29.18
2019-02-25T21:37:43.359Z,29.20
2019-02-25T21:40:15.376Z,31.85
2019-02-25T21:42:49.297Z,30.45
2019-02-25T21:45:20.616Z,31.52
2019-02-25T21:47:54.601Z,30.97
2019-02-25T21:50:28.382Z,32.28
2019-02-25T21:55:31.001Z,30.77
2019-02-25T22:00:37.483Z,27.93
2019-02-25T22:03:10.268Z,28.38
2019-02-25T22:05:40.808Z,31.48
2019-02-25T22:08:12.216Z,31.23
2019-02-25T22:10:44.145Z,32.67
2019-02-25T22:13:18.352Z,32.33
2019-02-25T22:15:50.649Z,32.20
2019-02-25T22:18:21.984Z,30.45
2019-02-25T22:20:53.552Z,32.42
2019-02-25T22:23:26.148Z,32.38
2019-02-25T22:25:58.226Z,32.83
2019-02-25T22:28:30.526Z,34.78
2019-02-25T22:31:02.429Z,31.97
2019-02-25T22:33:33.619Z,32.90
2019-02-25T22:36:05.114Z,32.67
2019-02-25T22:38:36.633Z,32.60
2019-02-25T22:41:07.992Z,33.45
2019-02-25T22:43:41.320Z,33.13
2019-02-25T22:46:12.474Z,34.70
2019-02-25T22:48:45.556Z,33.88
2019-02-25T22:53:50.322Z,32.75
2019-02-25T22:56:23.718Z,34.90
2019-02-25T22:58:56.592Z,35.38
2019-02-25T23:01:28.337Z,35.95
2019-02-25T23:03:59.678Z,35.15
2019-02-25T23:06:31.134Z,34.65
2019-02-25T23:09:02.692Z,33.30
2019-02-25T23:11:35.701Z,35.10
2019-02-25T23:14:07.765Z,34.18
2019-02-25T23:16:41.588Z,32.95
2019-02-25T23:21:45.099Z,30.45
2019-02-25T23:24:16.310Z,30.52
2019-02-25T23:26:48.667Z,32.67
2019-02-25T23:31:52.685Z,32.48
2019-02-25T23:34:23.898Z,33.83
2019-02-25T23:36:56.237Z,32.28
2019-02-25T23:39:27.795Z,34.10
2019-02-25T23:42:00.610Z,33.67
2019-02-25T23:44:32.149Z,34.45
2019-02-25T23:47:04.438Z,32.15
2019-02-25T23:52:08.500Z,33.10
2019-02-25T23:54:43.352Z,32.98
2019-02-25T23:59:47.058Z,34.23
